sensor_id;sensor_type;location;lat;lon;timestamp;P1;durP1;ratioP1;P2;durP2;ratioP2
57249;SDS011;43102;52.014;-0.680;2023-02-18T00:00:01;3.30;;;1.40;;
57249;SDS011;43102;52.014;-0.680;2023-02-18T00:01:01;3.30;;;1.40;;
57249;SDS011;43102;52.014;-0.680;2023-02-18T00:02:00;3.30;;;1.40;;
57249;SDS011;43102;52.014;-0.680;2023-02-18T00:03:00;3.30;;;1.40;;
57249;SDS011;43102;52.014;-0.680;2023-02-18T00:04:00;3.30;;;1.40;;
57249;SDS011;43102;52.014;-0.680;2023-02-18T00:05:00;1.40;;;1.30;;
57249;SDS011;43102;52.014;-0.680;2023-02-18T00:07:00;1.40;;;1.30;;
57249;SDS011;43102;52.014;-0.680;2023-02-18T00:08:00;1.40;;;1.30;;
57249;SDS011;43102;52.014;-0.680;2023-02-18T00:09:02;1.40;;;1.30;;
57249;SDS011;43102;52.014;-0.680;2023-02-18T00:10:02;1.40;;;1.30;;
57249;SDS011;43102;52.014;-0.680;2023-02-18T00:11:00;1.40;;;1.30;;
57249;SDS011;43102;52.014;-0.680;2023-02-18T00:12:00;1.40;;;1.30;;
57249;SDS011;43102;52.014;-0.680;2023-02-18T00:13:00;1.40;;;1.30;;
57249;SDS011;43102;52.014;-0.680;2023-02-18T00:14:03;1.40;;;1.30;;
57249;SDS011;43102;52.014;-0.680;2023-02-18T00:15:00;1.40;;;1.30;;
57249;SDS011;43102;52.014;-0.680;2023-02-18T00:16:02;1.40;;;1.30;;
57249;SDS011;43102;52.014;-0.680;2023-02-18T00:17:00;1.40;;;1.30;;
57249;SDS011;43102;52.014;-0.680;2023-02-18T00:18:00;1.40;;;1.30;;
57249;SDS011;43102;52.014;-0.680;2023-02-18T00:19:06;1.40;;;1.30;;
57249;SDS011;43102;52.014;-0.680;2023-02-18T00:20:00;1.40;;;1.30;;
57249;SDS011;43102;52.014;-0.680;2023-02-18T00:21:03;1.40;;;1.30;;
57249;SDS011;43102;52.014;-0.680;2023-02-18T00:22:00;1.40;;;1.30;;
57249;SDS011;43102;52.014;-0.680;2023-02-18T00:23:02;1.40;;;1.30;;
57249;SDS011;43102;52.014;-0.680;2023-02-18T00:24:01;1.40;;;1.30;;
57249;SDS011;43102;52.014;-0.680;2023-02-18T00:25:00;1.40;;;1.30;;
57249;SDS011;43102;52.014;-0.680;2023-02-18T00:26:07;1.40;;;1.30;;
57249;SDS011;43102;52.014;-0.680;2023-02-18T00:27:00;1.40;;;1.30;;
57249;SDS011;43102;52.014;-0.680;2023-02-18T00:28:00;1.40;;;1.30;;
57249;SDS011;43102;52.014;-0.680;2023-02-18T00:29:01;1.40;;;1.30;;
57249;SDS011;43102;52.014;-0.680;2023-02-18T00:30:02;1.40;;;1.30;;
57249;SDS011;43102;52.014;-0.680;2023-02-18T00:31:11;1.40;;;1.30;;
57249;SDS011;43102;52.014;-0.680;2023-02-18T00:32:01;1.40;;;1.30;;
57249;SDS011;43102;52.014;-0.680;2023-02-18T00:33:00;1.40;;;1.30;;
57249;SDS011;43102;52.014;-0.680;2023-02-18T00:34:03;1.40;;;1.30;;
57249;SDS011;43102;52.014;-0.680;2023-02-18T00:35:01;1.50;;;1.20;;
57249;SDS011;43102;52.014;-0.680;2023-02-18T00:36:04;1.50;;;1.20;;
57249;SDS011;43102;52.014;-0.680;2023-02-18T00:37:00;1.50;;;1.20;;
57249;SDS011;43102;52.014;-0.680;2023-02-18T00:38:00;1.50;;;1.20;;
57249;SDS011;43102;52.014;-0.680;2023-02-18T00:39:03;1.50;;;1.20;;
57249;SDS011;43102;52.014;-0.680;2023-02-18T00:40:00;1.50;;;1.20;;
57249;SDS011;43102;52.014;-0.680;2023-02-18T00:41:01;1.50;;;1.20;;
57249;SDS011;43102;52.014;-0.680;2023-02-18T00:42:00;1.50;;;1.20;;
57249;SDS011;43102;52.014;-0.680;2023-02-18T00:43:00;1.50;;;1.20;;
57249;SDS011;43102;52.014;-0.680;2023-02-18T00:44:00;1.50;;;1.20;;
57249;SDS011;43102;52.014;-0.680;2023-02-18T00:45:00;1.50;;;1.20;;
57249;SDS011;43102;52.014;-0.680;2023-02-18T00:46:01;1.50;;;1.20;;
57249;SDS011;43102;52.014;-0.680;2023-02-18T00:47:00;1.50;;;1.20;;
57249;SDS011;43102;52.014;-0.680;2023-02-18T00:48:00;1.50;;;1.20;;
57249;SDS011;43102;52.014;-0.680;2023-02-18T00:49:01;1.50;;;1.20;;
57249;SDS011;43102;52.014;-0.680;2023-02-18T00:50:00;1.50;;;1.20;;
57249;SDS011;43102;52.014;-0.680;2023-02-18T00:51:01;1.50;;;1.20;;
57249;SDS011;43102;52.014;-0.680;2023-02-18T00:52:00;1.50;;;1.20;;
57249;SDS011;43102;52.014;-0.680;2023-02-18T00:53:00;1.50;;;1.20;;
57249;SDS011;43102;52.014;-0.680;2023-02-18T00:54:01;1.50;;;1.20;;
57249;SDS011;43102;52.014;-0.680;2023-02-18T00:55:01;1.50;;;1.20;;
57249;SDS011;43102;52.014;-0.680;2023-02-18T00:56:01;1.50;;;1.20;;
57249;SDS011;43102;52.014;-0.680;2023-02-18T00:57:00;1.50;;;1.20;;
57249;SDS011;43102;52.014;-0.680;2023-02-18T00:58:00;1.50;;;1.20;;
57249;SDS011;43102;52.014;-0.680;2023-02-18T00:59:00;1.50;;;1.20;;
57249;SDS011;43102;52.014;-0.680;2023-02-18T01:00:00;1.50;;;1.20;;
57249;SDS011;43102;52.014;-0.680;2023-02-18T01:01:01;1.50;;;1.20;;
57249;SDS011;43102;52.014;-0.680;2023-02-18T01:02:00;1.50;;;1.20;;
57249;SDS011;43102;52.014;-0.680;2023-02-18T01:03:00;1.50;;;1.20;;
57249;SDS011;43102;52.014;-0.680;2023-02-18T01:04:01;1.50;;;1.20;;
57249;SDS011;43102;52.014;-0.680;2023-02-18T01:05:00;1.60;;;1.30;;
57249;SDS011;43102;52.014;-0.680;2023-02-18T01:06:00;1.60;;;1.30;;
57249;SDS011;43102;52.014;-0.680;2023-02-18T01:07:00;1.60;;;1.30;;
57249;SDS011;43102;52.014;-0.680;2023-02-18T01:08:01;1.60;;;1.30;;
57249;SDS011;43102;52.014;-0.680;2023-02-18T01:09:00;1.60;;;1.30;;
57249;SDS011;43102;52.014;-0.680;2023-02-18T01:10:00;1.60;;;1.30;;
57249;SDS011;43102;52.014;-0.680;2023-02-18T01:11:02;1.60;;;1.30;;
57249;SDS011;43102;52.014;-0.680;2023-02-18T01:12:01;1.60;;;1.30;;
57249;SDS011;43102;52.014;-0.680;2023-02-18T01:13:03;1.60;;;1.30;;
57249;SDS011;43102;52.014;-0.680;2023-02-18T01:14:01;1.60;;;1.30;;
57249;SDS011;43102;52.014;-0.680;2023-02-18T01:15:00;1.60;;;1.30;;
57249;SDS011;43102;52.014;-0.680;2023-02-18T01:16:01;1.60;;;1.30;;
57249;SDS011;43102;52.014;-0.680;2023-02-18T01:17:00;1.60;;;1.30;;
57249;SDS011;43102;52.014;-0.680;2023-02-18T01:18:00;1.60;;;1.30;;
57249;SDS011;43102;52.014;-0.680;2023-02-18T01:19:00;1.60;;;1.30;;
57249;SDS011;43102;52.014;-0.680;2023-02-18T01:20:00;1.60;;;1.30;;
57249;SDS011;43102;52.014;-0.680;2023-02-18T01:21:01;1.60;;;1.30;;
57249;SDS011;43102;52.014;-0.680;2023-02-18T01:22:01;1.60;;;1.30;;
57249;SDS011;43102;52.014;-0.680;2023-02-18T01:23:00;1.60;;;1.30;;
57249;SDS011;43102;52.014;-0.680;2023-02-18T01:24:00;1.60;;;1.30;;
57249;SDS011;43102;52.014;-0.680;2023-02-18T01:25:00;1.60;;;1.30;;
57249;SDS011;43102;52.014;-0.680;2023-02-18T01:26:00;1.60;;;1.30;;
57249;SDS011;43102;52.014;-0.680;2023-02-18T01:27:00;1.60;;;1.30;;
57249;SDS011;43102;52.014;-0.680;2023-02-18T01:28:01;1.60;;;1.30;;
57249;SDS011;43102;52.014;-0.680;2023-02-18T01:29:00;1.60;;;1.30;;
57249;SDS011;43102;52.014;-0.680;2023-02-18T01:30:02;1.60;;;1.30;;
57249;SDS011;43102;52.014;-0.680;2023-02-18T01:31:06;1.60;;;1.30;;
57249;SDS011;43102;52.014;-0.680;2023-02-18T01:32:00;1.60;;;1.30;;
57249;SDS011;43102;52.014;-0.680;2023-02-18T01:33:01;1.60;;;1.30;;
57249;SDS011;43102;52.014;-0.680;2023-02-18T01:34:00;1.60;;;1.30;;
57249;SDS011;43102;52.014;-0.680;2023-02-18T01:35:02;3.10;;;0.90;;
57249;SDS011;43102;52.014;-0.680;2023-02-18T01:36:01;3.10;;;0.90;;
57249;SDS011;43102;52.014;-0.680;2023-02-18T01:37:00;3.10;;;0.90;;
57249;SDS011;43102;52.014;-0.680;2023-02-18T01:38:01;3.10;;;0.90;;
57249;SDS011;43102;52.014;-0.680;2023-02-18T01:39:00;3.10;;;0.90;;
57249;SDS011;43102;52.014;-0.680;2023-02-18T01:40:00;3.10;;;0.90;;
57249;SDS011;43102;52.014;-0.680;2023-02-18T01:41:01;3.10;;;0.90;;
57249;SDS011;43102;52.014;-0.680;2023-02-18T01:42:00;3.10;;;0.90;;
57249;SDS011;43102;52.014;-0.680;2023-02-18T01:43:01;3.10;;;0.90;;
57249;SDS011;43102;52.014;-0.680;2023-02-18T01:44:19;3.10;;;0.90;;
57249;SDS011;43102;52.014;-0.680;2023-02-18T01:46:10;3.10;;;0.90;;
57249;SDS011;43102;52.014;-0.680;2023-02-18T01:47:00;3.10;;;0.90;;
57249;SDS011;43102;52.014;-0.680;2023-02-18T01:48:12;3.10;;;0.90;;
57249;SDS011;43102;52.014;-0.680;2023-02-18T01:49:01;3.10;;;0.90;;
57249;SDS011;43102;52.014;-0.680;2023-02-18T01:50:00;3.10;;;0.90;;
57249;SDS011;43102;52.014;-0.680;2023-02-18T01:51:17;3.10;;;0.90;;
57249;SDS011;43102;52.014;-0.680;2023-02-18T01:52:06;3.10;;;0.90;;
57249;SDS011;43102;52.014;-0.680;2023-02-18T01:53:01;3.10;;;0.90;;
57249;SDS011;43102;52.014;-0.680;2023-02-18T01:54:03;3.10;;;0.90;;
57249;SDS011;43102;52.014;-0.680;2023-02-18T01:55:00;3.10;;;0.90;;
57249;SDS011;43102;52.014;-0.680;2023-02-18T01:56:05;3.10;;;0.90;;
57249;SDS011;43102;52.014;-0.680;2023-02-18T01:57:07;3.10;;;0.90;;
57249;SDS011;43102;52.014;-0.680;2023-02-18T01:58:01;3.10;;;0.90;;
57249;SDS011;43102;52.014;-0.680;2023-02-18T01:59:05;3.10;;;0.90;;
57249;SDS011;43102;52.014;-0.680;2023-02-18T02:00:06;3.10;;;0.90;;
57249;SDS011;43102;52.014;-0.680;2023-02-18T02:01:01;3.10;;;0.90;;
57249;SDS011;43102;52.014;-0.680;2023-02-18T02:02:01;3.10;;;0.90;;
57249;SDS011;43102;52.014;-0.680;2023-02-18T02:03:00;3.10;;;0.90;;
57249;SDS011;43102;52.014;-0.680;2023-02-18T02:04:01;3.10;;;0.90;;
57249;SDS011;43102;52.014;-0.680;2023-02-18T02:05:00;3.10;;;1.30;;
57249;SDS011;43102;52.014;-0.680;2023-02-18T02:06:00;3.10;;;1.30;;
57249;SDS011;43102;52.014;-0.680;2023-02-18T02:07:01;3.10;;;1.30;;
57249;SDS011;43102;52.014;-0.680;2023-02-18T02:08:02;3.10;;;1.30;;
57249;SDS011;43102;52.014;-0.680;2023-02-18T02:09:03;3.10;;;1.30;;
57249;SDS011;43102;52.014;-0.680;2023-02-18T02:10:01;3.10;;;1.30;;
57249;SDS011;43102;52.014;-0.680;2023-02-18T02:11:15;3.10;;;1.30;;
57249;SDS011;43102;52.014;-0.680;2023-02-18T02:14:12;3.10;;;1.30;;
57249;SDS011;43102;52.014;-0.680;2023-02-18T02:15:07;3.10;;;1.30;;
57249;SDS011;43102;52.014;-0.680;2023-02-18T02:16:11;3.10;;;1.30;;
57249;SDS011;43102;52.014;-0.680;2023-02-18T02:17:03;3.10;;;1.30;;
57249;SDS011;43102;52.014;-0.680;2023-02-18T02:19:12;3.10;;;1.30;;
57249;SDS011;43102;52.014;-0.680;2023-02-18T02:29:17;3.10;;;1.30;;
57249;SDS011;43102;52.014;-0.680;2023-02-18T02:33:10;3.10;;;1.30;;
57249;SDS011;43102;52.014;-0.680;2023-02-18T02:35:25;9.00;;;2.30;;
57249;SDS011;43102;52.014;-0.680;2023-02-18T02:36:20;9.00;;;2.30;;
57249;SDS011;43102;52.014;-0.680;2023-02-18T02:37:08;9.00;;;2.30;;
57249;SDS011;43102;52.014;-0.680;2023-02-18T02:38:03;9.00;;;2.30;;
57249;SDS011;43102;52.014;-0.680;2023-02-18T02:39:03;9.00;;;2.30;;
57249;SDS011;43102;52.014;-0.680;2023-02-18T02:41:12;9.00;;;2.30;;
57249;SDS011;43102;52.014;-0.680;2023-02-18T02:47:05;9.00;;;2.30;;
57249;SDS011;43102;52.014;-0.680;2023-02-18T02:52:06;9.00;;;2.30;;
57249;SDS011;43102;52.014;-0.680;2023-02-18T02:53:05;9.00;;;2.30;;
57249;SDS011;43102;52.014;-0.680;2023-02-18T02:54:10;9.00;;;2.30;;
57249;SDS011;43102;52.014;-0.680;2023-02-18T02:55:03;9.00;;;2.30;;
57249;SDS011;43102;52.014;-0.680;2023-02-18T02:56:00;9.00;;;2.30;;
57249;SDS011;43102;52.014;-0.680;2023-02-18T02:58:00;9.00;;;2.30;;
57249;SDS011;43102;52.014;-0.680;2023-02-18T02:59:04;9.00;;;2.30;;
57249;SDS011;43102;52.014;-0.680;2023-02-18T03:00:04;9.00;;;2.30;;
57249;SDS011;43102;52.014;-0.680;2023-02-18T03:02:18;9.00;;;2.30;;
57249;SDS011;43102;52.014;-0.680;2023-02-18T03:03:10;9.00;;;2.30;;
57249;SDS011;43102;52.014;-0.680;2023-02-18T03:04:08;9.00;;;2.30;;
57249;SDS011;43102;52.014;-0.680;2023-02-18T03:11:10;6.30;;;2.40;;
57249;SDS011;43102;52.014;-0.680;2023-02-18T03:12:06;6.30;;;2.40;;
57249;SDS011;43102;52.014;-0.680;2023-02-18T03:14:10;6.30;;;2.40;;
57249;SDS011;43102;52.014;-0.680;2023-02-18T03:15:16;6.30;;;2.40;;
57249;SDS011;43102;52.014;-0.680;2023-02-18T03:16:11;6.30;;;2.40;;
57249;SDS011;43102;52.014;-0.680;2023-02-18T03:17:08;6.30;;;2.40;;
57249;SDS011;43102;52.014;-0.680;2023-02-18T03:18:09;6.30;;;2.40;;
57249;SDS011;43102;52.014;-0.680;2023-02-18T03:20:09;6.30;;;2.40;;
57249;SDS011;43102;52.014;-0.680;2023-02-18T03:21:08;6.30;;;2.40;;
57249;SDS011;43102;52.014;-0.680;2023-02-18T03:22:28;6.30;;;2.40;;
57249;SDS011;43102;52.014;-0.680;2023-02-18T03:23:04;6.30;;;2.40;;
57249;SDS011;43102;52.014;-0.680;2023-02-18T03:25:02;6.30;;;2.40;;
57249;SDS011;43102;52.014;-0.680;2023-02-18T03:26:03;6.30;;;2.40;;
57249;SDS011;43102;52.014;-0.680;2023-02-18T03:28:04;6.30;;;2.40;;
57249;SDS011;43102;52.014;-0.680;2023-02-18T03:29:02;6.30;;;2.40;;
57249;SDS011;43102;52.014;-0.680;2023-02-18T03:30:10;6.30;;;2.40;;
57249;SDS011;43102;52.014;-0.680;2023-02-18T03:31:06;6.30;;;2.40;;
57249;SDS011;43102;52.014;-0.680;2023-02-18T03:32:04;6.30;;;2.40;;
57249;SDS011;43102;52.014;-0.680;2023-02-18T03:33:03;6.30;;;2.40;;
57249;SDS011;43102;52.014;-0.680;2023-02-18T03:34:05;6.30;;;2.40;;
57249;SDS011;43102;52.014;-0.680;2023-02-18T03:35:06;4.80;;;2.40;;
57249;SDS011;43102;52.014;-0.680;2023-02-18T03:36:01;4.80;;;2.40;;
57249;SDS011;43102;52.014;-0.680;2023-02-18T03:37:01;4.80;;;2.40;;
57249;SDS011;43102;52.014;-0.680;2023-02-18T03:38:09;4.80;;;2.40;;
57249;SDS011;43102;52.014;-0.680;2023-02-18T03:39:03;4.80;;;2.40;;
57249;SDS011;43102;52.014;-0.680;2023-02-18T03:40:01;4.80;;;2.40;;
57249;SDS011;43102;52.014;-0.680;2023-02-18T03:41:00;4.80;;;2.40;;
57249;SDS011;43102;52.014;-0.680;2023-02-18T03:42:00;4.80;;;2.40;;
57249;SDS011;43102;52.014;-0.680;2023-02-18T03:43:00;4.80;;;2.40;;
57249;SDS011;43102;52.014;-0.680;2023-02-18T03:44:04;4.80;;;2.40;;
57249;SDS011;43102;52.014;-0.680;2023-02-18T03:45:00;4.80;;;2.40;;
57249;SDS011;43102;52.014;-0.680;2023-02-18T03:46:01;4.80;;;2.40;;
57249;SDS011;43102;52.014;-0.680;2023-02-18T03:47:00;4.80;;;2.40;;
57249;SDS011;43102;52.014;-0.680;2023-02-18T03:48:00;4.80;;;2.40;;
57249;SDS011;43102;52.014;-0.680;2023-02-18T03:49:00;4.80;;;2.40;;
57249;SDS011;43102;52.014;-0.680;2023-02-18T03:50:01;4.80;;;2.40;;
57249;SDS011;43102;52.014;-0.680;2023-02-18T03:51:00;4.80;;;2.40;;
57249;SDS011;43102;52.014;-0.680;2023-02-18T03:52:01;4.80;;;2.40;;
57249;SDS011;43102;52.014;-0.680;2023-02-18T03:53:00;4.80;;;2.40;;
57249;SDS011;43102;52.014;-0.680;2023-02-18T03:54:00;4.80;;;2.40;;
57249;SDS011;43102;52.014;-0.680;2023-02-18T03:55:00;4.80;;;2.40;;
57249;SDS011;43102;52.014;-0.680;2023-02-18T03:56:00;4.80;;;2.40;;
57249;SDS011;43102;52.014;-0.680;2023-02-18T03:57:00;4.80;;;2.40;;
57249;SDS011;43102;52.014;-0.680;2023-02-18T03:58:00;4.80;;;2.40;;
57249;SDS011;43102;52.014;-0.680;2023-02-18T03:59:00;4.80;;;2.40;;
57249;SDS011;43102;52.014;-0.680;2023-02-18T04:00:01;4.80;;;2.40;;
57249;SDS011;43102;52.014;-0.680;2023-02-18T04:01:01;4.80;;;2.40;;
57249;SDS011;43102;52.014;-0.680;2023-02-18T04:02:01;4.80;;;2.40;;
57249;SDS011;43102;52.014;-0.680;2023-02-18T04:03:00;4.80;;;2.40;;
57249;SDS011;43102;52.014;-0.680;2023-02-18T04:04:02;4.80;;;2.40;;
57249;SDS011;43102;52.014;-0.680;2023-02-18T04:05:00;7.00;;;2.20;;
57249;SDS011;43102;52.014;-0.680;2023-02-18T04:06:00;7.00;;;2.20;;
57249;SDS011;43102;52.014;-0.680;2023-02-18T04:07:01;7.00;;;2.20;;
57249;SDS011;43102;52.014;-0.680;2023-02-18T04:08:00;7.00;;;2.20;;
57249;SDS011;43102;52.014;-0.680;2023-02-18T04:09:01;7.00;;;2.20;;
57249;SDS011;43102;52.014;-0.680;2023-02-18T04:10:00;7.00;;;2.20;;
57249;SDS011;43102;52.014;-0.680;2023-02-18T04:11:00;7.00;;;2.20;;
57249;SDS011;43102;52.014;-0.680;2023-02-18T04:12:00;7.00;;;2.20;;
57249;SDS011;43102;52.014;-0.680;2023-02-18T04:13:00;7.00;;;2.20;;
57249;SDS011;43102;52.014;-0.680;2023-02-18T04:14:00;7.00;;;2.20;;
57249;SDS011;43102;52.014;-0.680;2023-02-18T04:15:00;7.00;;;2.20;;
57249;SDS011;43102;52.014;-0.680;2023-02-18T04:16:00;7.00;;;2.20;;
57249;SDS011;43102;52.014;-0.680;2023-02-18T04:17:00;7.00;;;2.20;;
57249;SDS011;43102;52.014;-0.680;2023-02-18T04:18:00;7.00;;;2.20;;
57249;SDS011;43102;52.014;-0.680;2023-02-18T04:19:00;7.00;;;2.20;;
57249;SDS011;43102;52.014;-0.680;2023-02-18T04:20:00;7.00;;;2.20;;
57249;SDS011;43102;52.014;-0.680;2023-02-18T04:21:00;7.00;;;2.20;;
57249;SDS011;43102;52.014;-0.680;2023-02-18T04:22:01;7.00;;;2.20;;
57249;SDS011;43102;52.014;-0.680;2023-02-18T04:23:00;7.00;;;2.20;;
57249;SDS011;43102;52.014;-0.680;2023-02-18T04:24:00;7.00;;;2.20;;
57249;SDS011;43102;52.014;-0.680;2023-02-18T04:25:00;7.00;;;2.20;;
57249;SDS011;43102;52.014;-0.680;2023-02-18T04:26:00;7.00;;;2.20;;
57249;SDS011;43102;52.014;-0.680;2023-02-18T04:27:00;7.00;;;2.20;;
57249;SDS011;43102;52.014;-0.680;2023-02-18T04:28:00;7.00;;;2.20;;
57249;SDS011;43102;52.014;-0.680;2023-02-18T04:29:00;7.00;;;2.20;;
57249;SDS011;43102;52.014;-0.680;2023-02-18T04:30:00;7.00;;;2.20;;
57249;SDS011;43102;52.014;-0.680;2023-02-18T04:31:00;7.00;;;2.20;;
57249;SDS011;43102;52.014;-0.680;2023-02-18T04:32:00;7.00;;;2.20;;
57249;SDS011;43102;52.014;-0.680;2023-02-18T04:33:00;7.00;;;2.20;;
57249;SDS011;43102;52.014;-0.680;2023-02-18T04:34:00;7.00;;;2.20;;
57249;SDS011;43102;52.014;-0.680;2023-02-18T04:35:00;4.70;;;1.50;;
57249;SDS011;43102;52.014;-0.680;2023-02-18T04:36:00;4.70;;;1.50;;
57249;SDS011;43102;52.014;-0.680;2023-02-18T04:37:00;4.70;;;1.50;;
57249;SDS011;43102;52.014;-0.680;2023-02-18T04:38:00;4.70;;;1.50;;
57249;SDS011;43102;52.014;-0.680;2023-02-18T04:39:00;4.70;;;1.50;;
57249;SDS011;43102;52.014;-0.680;2023-02-18T04:40:01;4.70;;;1.50;;
57249;SDS011;43102;52.014;-0.680;2023-02-18T04:41:00;4.70;;;1.50;;
57249;SDS011;43102;52.014;-0.680;2023-02-18T04:42:00;4.70;;;1.50;;
57249;SDS011;43102;52.014;-0.680;2023-02-18T04:43:01;4.70;;;1.50;;
57249;SDS011;43102;52.014;-0.680;2023-02-18T04:44:00;4.70;;;1.50;;
57249;SDS011;43102;52.014;-0.680;2023-02-18T04:45:00;4.70;;;1.50;;
57249;SDS011;43102;52.014;-0.680;2023-02-18T04:46:00;4.70;;;1.50;;
57249;SDS011;43102;52.014;-0.680;2023-02-18T04:47:01;4.70;;;1.50;;
57249;SDS011;43102;52.014;-0.680;2023-02-18T04:48:00;4.70;;;1.50;;
57249;SDS011;43102;52.014;-0.680;2023-02-18T04:49:00;4.70;;;1.50;;
57249;SDS011;43102;52.014;-0.680;2023-02-18T04:50:00;4.70;;;1.50;;
57249;SDS011;43102;52.014;-0.680;2023-02-18T04:51:01;4.70;;;1.50;;
57249;SDS011;43102;52.014;-0.680;2023-02-18T04:52:01;4.70;;;1.50;;
57249;SDS011;43102;52.014;-0.680;2023-02-18T04:53:00;4.70;;;1.50;;
57249;SDS011;43102;52.014;-0.680;2023-02-18T04:54:00;4.70;;;1.50;;
57249;SDS011;43102;52.014;-0.680;2023-02-18T04:55:00;4.70;;;1.50;;
57249;SDS011;43102;52.014;-0.680;2023-02-18T04:56:00;4.70;;;1.50;;
57249;SDS011;43102;52.014;-0.680;2023-02-18T04:57:00;4.70;;;1.50;;
57249;SDS011;43102;52.014;-0.680;2023-02-18T04:58:00;4.70;;;1.50;;
57249;SDS011;43102;52.014;-0.680;2023-02-18T04:59:00;4.70;;;1.50;;
57249;SDS011;43102;52.014;-0.680;2023-02-18T05:00:01;4.70;;;1.50;;
57249;SDS011;43102;52.014;-0.680;2023-02-18T05:01:02;4.70;;;1.50;;
57249;SDS011;43102;52.014;-0.680;2023-02-18T05:02:00;4.70;;;1.50;;
57249;SDS011;43102;52.014;-0.680;2023-02-18T05:03:00;4.70;;;1.50;;
57249;SDS011;43102;52.014;-0.680;2023-02-18T05:04:00;4.70;;;1.50;;
57249;SDS011;43102;52.014;-0.680;2023-02-18T05:05:00;5.40;;;2.20;;
57249;SDS011;43102;52.014;-0.680;2023-02-18T05:06:00;5.40;;;2.20;;
57249;SDS011;43102;52.014;-0.680;2023-02-18T05:07:00;5.40;;;2.20;;
57249;SDS011;43102;52.014;-0.680;2023-02-18T05:08:01;5.40;;;2.20;;
57249;SDS011;43102;52.014;-0.680;2023-02-18T05:09:00;5.40;;;2.20;;
57249;SDS011;43102;52.014;-0.680;2023-02-18T05:10:00;5.40;;;2.20;;
57249;SDS011;43102;52.014;-0.680;2023-02-18T05:11:05;5.40;;;2.20;;
57249;SDS011;43102;52.014;-0.680;2023-02-18T05:12:00;5.40;;;2.20;;
57249;SDS011;43102;52.014;-0.680;2023-02-18T05:13:00;5.40;;;2.20;;
57249;SDS011;43102;52.014;-0.680;2023-02-18T05:14:00;5.40;;;2.20;;
57249;SDS011;43102;52.014;-0.680;2023-02-18T05:15:00;5.40;;;2.20;;
57249;SDS011;43102;52.014;-0.680;2023-02-18T05:16:00;5.40;;;2.20;;
57249;SDS011;43102;52.014;-0.680;2023-02-18T05:17:00;5.40;;;2.20;;
57249;SDS011;43102;52.014;-0.680;2023-02-18T05:18:00;5.40;;;2.20;;
57249;SDS011;43102;52.014;-0.680;2023-02-18T05:19:00;5.40;;;2.20;;
57249;SDS011;43102;52.014;-0.680;2023-02-18T05:20:01;5.40;;;2.20;;
57249;SDS011;43102;52.014;-0.680;2023-02-18T05:21:00;5.40;;;2.20;;
57249;SDS011;43102;52.014;-0.680;2023-02-18T05:22:00;5.40;;;2.20;;
57249;SDS011;43102;52.014;-0.680;2023-02-18T05:23:01;5.40;;;2.20;;
57249;SDS011;43102;52.014;-0.680;2023-02-18T05:24:00;5.40;;;2.20;;
57249;SDS011;43102;52.014;-0.680;2023-02-18T05:25:00;5.40;;;2.20;;
57249;SDS011;43102;52.014;-0.680;2023-02-18T05:26:00;5.40;;;2.20;;
57249;SDS011;43102;52.014;-0.680;2023-02-18T05:27:00;5.40;;;2.20;;
57249;SDS011;43102;52.014;-0.680;2023-02-18T05:28:00;5.40;;;2.20;;
57249;SDS011;43102;52.014;-0.680;2023-02-18T05:29:00;5.40;;;2.20;;
57249;SDS011;43102;52.014;-0.680;2023-02-18T05:30:01;5.40;;;2.20;;
57249;SDS011;43102;52.014;-0.680;2023-02-18T05:31:01;5.40;;;2.20;;
57249;SDS011;43102;52.014;-0.680;2023-02-18T05:32:01;5.40;;;2.20;;
57249;SDS011;43102;52.014;-0.680;2023-02-18T05:33:00;5.40;;;2.20;;
57249;SDS011;43102;52.014;-0.680;2023-02-18T05:34:02;5.40;;;2.20;;
57249;SDS011;43102;52.014;-0.680;2023-02-18T05:35:00;4.40;;;2.20;;
57249;SDS011;43102;52.014;-0.680;2023-02-18T05:36:00;4.40;;;2.20;;
57249;SDS011;43102;52.014;-0.680;2023-02-18T05:37:00;4.40;;;2.20;;
57249;SDS011;43102;52.014;-0.680;2023-02-18T05:38:00;4.40;;;2.20;;
57249;SDS011;43102;52.014;-0.680;2023-02-18T05:39:00;4.40;;;2.20;;
57249;SDS011;43102;52.014;-0.680;2023-02-18T05:40:01;4.40;;;2.20;;
57249;SDS011;43102;52.014;-0.680;2023-02-18T05:41:01;4.40;;;2.20;;
57249;SDS011;43102;52.014;-0.680;2023-02-18T05:42:00;4.40;;;2.20;;
57249;SDS011;43102;52.014;-0.680;2023-02-18T05:43:00;4.40;;;2.20;;
57249;SDS011;43102;52.014;-0.680;2023-02-18T05:44:10;4.40;;;2.20;;
57249;SDS011;43102;52.014;-0.680;2023-02-18T05:45:00;4.40;;;2.20;;
57249;SDS011;43102;52.014;-0.680;2023-02-18T05:46:00;4.40;;;2.20;;
57249;SDS011;43102;52.014;-0.680;2023-02-18T05:47:04;4.40;;;2.20;;
57249;SDS011;43102;52.014;-0.680;2023-02-18T05:48:00;4.40;;;2.20;;
57249;SDS011;43102;52.014;-0.680;2023-02-18T05:49:00;4.40;;;2.20;;
57249;SDS011;43102;52.014;-0.680;2023-02-18T05:50:01;4.40;;;2.20;;
57249;SDS011;43102;52.014;-0.680;2023-02-18T05:51:00;4.40;;;2.20;;
57249;SDS011;43102;52.014;-0.680;2023-02-18T05:52:00;4.40;;;2.20;;
57249;SDS011;43102;52.014;-0.680;2023-02-18T05:53:00;4.40;;;2.20;;
57249;SDS011;43102;52.014;-0.680;2023-02-18T05:54:00;4.40;;;2.20;;
57249;SDS011;43102;52.014;-0.680;2023-02-18T05:55:00;4.40;;;2.20;;
57249;SDS011;43102;52.014;-0.680;2023-02-18T05:56:00;4.40;;;2.20;;
57249;SDS011;43102;52.014;-0.680;2023-02-18T05:57:00;4.40;;;2.20;;
57249;SDS011;43102;52.014;-0.680;2023-02-18T05:58:00;4.40;;;2.20;;
57249;SDS011;43102;52.014;-0.680;2023-02-18T05:59:00;4.40;;;2.20;;
57249;SDS011;43102;52.014;-0.680;2023-02-18T06:00:00;4.40;;;2.20;;
57249;SDS011;43102;52.014;-0.680;2023-02-18T06:01:00;4.40;;;2.20;;
57249;SDS011;43102;52.014;-0.680;2023-02-18T06:02:00;4.40;;;2.20;;
57249;SDS011;43102;52.014;-0.680;2023-02-18T06:03:01;4.40;;;2.20;;
57249;SDS011;43102;52.014;-0.680;2023-02-18T06:04:00;4.40;;;2.20;;
57249;SDS011;43102;52.014;-0.680;2023-02-18T06:05:01;10.30;;;2.20;;
57249;SDS011;43102;52.014;-0.680;2023-02-18T06:06:01;10.30;;;2.20;;
57249;SDS011;43102;52.014;-0.680;2023-02-18T06:07:00;10.30;;;2.20;;
57249;SDS011;43102;52.014;-0.680;2023-02-18T06:08:00;10.30;;;2.20;;
57249;SDS011;43102;52.014;-0.680;2023-02-18T06:09:01;10.30;;;2.20;;
57249;SDS011;43102;52.014;-0.680;2023-02-18T06:10:00;10.30;;;2.20;;
57249;SDS011;43102;52.014;-0.680;2023-02-18T06:11:00;10.30;;;2.20;;
57249;SDS011;43102;52.014;-0.680;2023-02-18T06:12:01;10.30;;;2.20;;
57249;SDS011;43102;52.014;-0.680;2023-02-18T06:13:01;10.30;;;2.20;;
57249;SDS011;43102;52.014;-0.680;2023-02-18T06:14:01;10.30;;;2.20;;
57249;SDS011;43102;52.014;-0.680;2023-02-18T06:15:00;10.30;;;2.20;;
57249;SDS011;43102;52.014;-0.680;2023-02-18T06:16:00;10.30;;;2.20;;
57249;SDS011;43102;52.014;-0.680;2023-02-18T06:17:00;10.30;;;2.20;;
57249;SDS011;43102;52.014;-0.680;2023-02-18T06:18:00;10.30;;;2.20;;
57249;SDS011;43102;52.014;-0.680;2023-02-18T06:19:00;10.30;;;2.20;;
57249;SDS011;43102;52.014;-0.680;2023-02-18T06:20:00;10.30;;;2.20;;
57249;SDS011;43102;52.014;-0.680;2023-02-18T06:21:00;10.30;;;2.20;;
57249;SDS011;43102;52.014;-0.680;2023-02-18T06:22:00;10.30;;;2.20;;
57249;SDS011;43102;52.014;-0.680;2023-02-18T06:23:00;10.30;;;2.20;;
57249;SDS011;43102;52.014;-0.680;2023-02-18T06:24:00;10.30;;;2.20;;
57249;SDS011;43102;52.014;-0.680;2023-02-18T06:25:01;10.30;;;2.20;;
57249;SDS011;43102;52.014;-0.680;2023-02-18T06:26:01;10.30;;;2.20;;
57249;SDS011;43102;52.014;-0.680;2023-02-18T06:27:01;10.30;;;2.20;;
57249;SDS011;43102;52.014;-0.680;2023-02-18T06:28:00;10.30;;;2.20;;
57249;SDS011;43102;52.014;-0.680;2023-02-18T06:29:00;10.30;;;2.20;;
57249;SDS011;43102;52.014;-0.680;2023-02-18T06:30:00;10.30;;;2.20;;
57249;SDS011;43102;52.014;-0.680;2023-02-18T06:31:00;10.30;;;2.20;;
57249;SDS011;43102;52.014;-0.680;2023-02-18T06:32:01;10.30;;;2.20;;
57249;SDS011;43102;52.014;-0.680;2023-02-18T06:33:03;10.30;;;2.20;;
57249;SDS011;43102;52.014;-0.680;2023-02-18T06:34:00;10.30;;;2.20;;
57249;SDS011;43102;52.014;-0.680;2023-02-18T06:35:00;4.50;;;2.20;;